Terminal Aerodrome Forecast
Issued by NWS

Home | Current Version | Previous Version | Text Only | Print | Product List | Glossary On
Versions: 1 2 3 4 5 6 7 8 9 10 11 12
950
FTUS42 KTAE 101720
TAFDHN
TAF
KDHN 101720Z 1018/1118 29010G15KT P6SM SKC
     FM102300 25005KT P6SM SKC
     FM111600 22010KT P6SM SKC=

USA.gov is the U.S. government's official web portal to all federal, state and local government web resources and services.